createdAt,value
2022-08-26T03:55:09.749Z,14.43
2022-08-26T03:57:36.411Z,14.77
2022-08-26T04:00:06.362Z,14.10
2022-08-26T04:02:32.838Z,13.80
2022-08-26T04:05:00.148Z,12.75
2022-08-26T04:07:26.620Z,14.07
2022-08-26T04:09:56.964Z,13.90
2022-08-26T04:12:25.454Z,12.90
2022-08-26T04:14:53.783Z,13.50
2022-08-26T04:17:21.098Z,13.75
2022-08-26T04:19:54.442Z,13.68
2022-08-26T04:22:24.894Z,13.03
2022-08-26T04:24:52.126Z,13.35
2022-08-26T04:27:18.609Z,14.13
2022-08-26T04:29:46.494Z,13.70
2022-08-26T04:32:14.532Z,14.95
2022-08-26T04:34:43.426Z,13.90
2022-08-26T04:37:13.879Z,13.70
2022-08-26T04:39:40.378Z,13.60
2022-08-26T04:42:07.029Z,13.10
2022-08-26T04:44:35.494Z,13.43
2022-08-26T04:47:01.985Z,14.53
2022-08-26T04:49:35.356Z,14.43
2022-08-26T04:52:03.435Z,13.27
2022-08-26T04:54:31.321Z,13.23
2022-08-26T04:56:57.875Z,12.50
2022-08-26T04:59:25.098Z,12.20
2022-08-26T05:01:53.176Z,12.60
2022-08-26T05:04:20.696Z,12.82
2022-08-26T05:06:48.221Z,12.07
2022-08-26T05:09:15.497Z,11.15
2022-08-26T05:11:42.114Z,12.47
2022-08-26T05:14:08.653Z,12.23
2022-08-26T05:16:35.218Z,11.60
2022-08-26T05:19:02.913Z,12.35
2022-08-26T05:21:29.432Z,10.77
2022-08-26T05:23:56.139Z,10.37
2022-08-26T05:26:25.073Z,10.70
2022-08-26T05:28:54.669Z,10.40
2022-08-26T05:31:25.537Z,10.55
2022-08-26T05:33:52.413Z,10.50
2022-08-26T05:36:21.669Z,10.07
2022-08-26T05:38:48.676Z,9.95
2022-08-26T05:41:16.603Z,8.90
2022-08-26T05:43:43.429Z,9.38
2022-08-26T05:46:10.483Z,9.05
2022-08-26T05:48:37.589Z,8.53
2022-08-26T05:51:07.289Z,9.63
2022-08-26T05:53:34.514Z,7.80
2022-08-26T05:56:01.255Z,8.15
2022-08-26T05:58:27.777Z,8.07
2022-08-26T06:01:04.264Z,7.97
2022-08-26T06:03:34.003Z,7.65
2022-08-26T06:06:13.326Z,7.78
2022-08-26T06:08:39.904Z,8.07
2022-08-26T06:11:08.399Z,7.93
2022-08-26T06:13:44.899Z,9.17
2022-08-26T06:16:14.862Z,8.18
2022-08-26T06:18:43.573Z,8.35
2022-08-26T06:21:15.985Z,7.30
2022-08-26T06:24:02.446Z,7.65
2022-08-26T06:26:29.664Z,6.43
2022-08-26T06:28:56.321Z,6.78
2022-08-26T06:31:23.739Z,6.60
2022-08-26T06:33:51.216Z,6.80
2022-08-26T06:36:20.070Z,6.63
2022-08-26T06:38:48.821Z,5.67
2022-08-26T06:41:17.029Z,6.53
2022-08-26T06:43:44.117Z,6.85
2022-08-26T06:46:12.528Z,6.35
2022-08-26T06:48:39.856Z,6.30
2022-08-26T06:51:13.029Z,6.07
2022-08-26T06:53:41.133Z,5.85
2022-08-26T06:56:09.510Z,6.40
2022-08-26T06:58:37.588Z,5.90
2022-08-26T07:01:11.357Z,6.15
2022-08-26T07:03:39.828Z,6.27
2022-08-26T07:06:06.853Z,5.95
2022-08-26T07:08:33.891Z,5.50
2022-08-26T07:11:10.565Z,5.38
2022-08-26T07:13:37.663Z,5.20
2022-08-26T07:16:05.710Z,5.27
2022-08-26T07:18:34.374Z,5.63
2022-08-26T07:21:03.054Z,5.35
2022-08-26T07:23:29.897Z,5.38
2022-08-26T07:25:56.497Z,5.00
2022-08-26T07:28:23.014Z,5.30
2022-08-26T07:30:49.750Z,5.95
2022-08-26T07:33:17.969Z,6.10
2022-08-26T07:35:44.552Z,5.22
2022-08-26T07:38:11.709Z,5.65
2022-08-26T07:40:40.963Z,5.57
2022-08-26T07:43:09.639Z,6.15
2022-08-26T07:45:36.865Z,5.50
2022-08-26T07:48:03.988Z,5.28
2022-08-26T07:50:49.100Z,5.53
2022-08-26T07:53:18.009Z,6.07
2022-08-26T07:55:46.576Z,5.57
2022-08-26T07:58:13.622Z,5.80
2022-08-26T08:00:40.193Z,6.15
2022-08-26T08:03:07.180Z,5.80
2022-08-26T08:05:34.635Z,6.00
2022-08-26T08:08:27.077Z,6.40
2022-08-26T08:10:50.148Z,6.65
2022-08-26T08:13:17.097Z,6.00
2022-08-26T08:15:45.661Z,5.85
2022-08-26T08:18:15.397Z,6.30
2022-08-26T08:20:47.722Z,6.10
2022-08-26T08:23:25.878Z,6.35
2022-08-26T08:26:04.438Z,5.55
2022-08-26T08:28:31.309Z,4.95
2022-08-26T08:30:58.188Z,5.63
2022-08-26T08:33:26.147Z,4.25
2022-08-26T08:35:53.020Z,5.75
2022-08-26T08:38:19.493Z,4.97
2022-08-26T08:40:46.305Z,5.68
2022-08-26T08:43:26.038Z,5.13
2022-08-26T08:45:56.258Z,5.43
2022-08-26T08:48:27.739Z,5.47
2022-08-26T08:51:04.038Z,5.75
2022-08-26T08:53:37.652Z,5.00
2022-08-26T08:56:13.162Z,5.47
2022-08-26T08:58:58.378Z,5.28
2022-08-26T09:01:43.397Z,5.22
2022-08-26T09:04:18.614Z,5.10
2022-08-26T09:06:46.853Z,5.47
2022-08-26T09:09:23.289Z,5.40
2022-08-26T09:11:50.030Z,5.68
2022-08-26T09:14:16.738Z,5.00
2022-08-26T09:17:08.726Z,4.95
2022-08-26T09:19:41.272Z,5.28
2022-08-26T09:22:09.555Z,4.83
2022-08-26T09:24:41.828Z,5.82
2022-08-26T09:27:50.395Z,4.65
2022-08-26T09:30:29.458Z,5.05
2022-08-26T09:33:10.889Z,4.75
2022-08-26T09:35:47.133Z,4.70
2022-08-26T09:38:22.904Z,5.80
2022-08-26T09:41:01.931Z,5.15
2022-08-26T09:43:29.023Z,5.50
2022-08-26T09:46:12.185Z,4.85
2022-08-26T09:48:40.588Z,4.63
2022-08-26T09:51:27.550Z,4.65
2022-08-26T09:53:56.784Z,5.00
2022-08-26T09:56:32.024Z,5.25
2022-08-26T09:58:59.702Z,5.60
2022-08-26T10:01:30.571Z,5.10
2022-08-26T10:04:06.207Z,4.20
2022-08-26T10:06:38.226Z,4.65
2022-08-26T10:09:08.924Z,5.32
2022-08-26T10:11:44.826Z,4.82
2022-08-26T10:14:28.323Z,5.00
2022-08-26T10:17:21.060Z,4.78
2022-08-26T10:19:56.580Z,4.90
2022-08-26T10:22:35.341Z,4.32
2022-08-26T10:25:04.538Z,4.68
2022-08-26T10:27:40.486Z,4.70
2022-08-26T10:30:20.911Z,4.57
2022-08-26T10:32:58.172Z,5.05
2022-08-26T10:35:26.938Z,5.05
2022-08-26T10:37:57.065Z,4.93
2022-08-26T10:40:26.529Z,5.37
2022-08-26T10:43:11.372Z,5.15
2022-08-26T10:45:44.268Z,4.28
2022-08-26T10:48:16.594Z,4.55
2022-08-26T10:50:47.608Z,5.00
2022-08-26T10:53:42.557Z,4.40
2022-08-26T10:56:33.398Z,5.00
2022-08-26T10:59:05.756Z,4.50
2022-08-26T11:02:14.681Z,4.68
2022-08-26T11:04:50.747Z,5.03
2022-08-26T11:07:31.999Z,4.63
2022-08-26T11:10:00.404Z,4.30
2022-08-26T11:12:36.124Z,4.22
2022-08-26T11:15:08.808Z,4.72
2022-08-26T11:17:44.719Z,4.57
2022-08-26T11:20:45.904Z,5.20
2022-08-26T11:23:13.552Z,4.30
2022-08-26T11:26:02.009Z,4.47
2022-08-26T11:28:45.292Z,4.43
2022-08-26T11:31:37.740Z,4.43
2022-08-26T11:34:07.172Z,4.60
2022-08-26T11:36:39.764Z,4.65
2022-08-26T11:39:31.080Z,4.80
2022-08-26T11:42:20.295Z,4.93
2022-08-26T11:44:49.665Z,4.57
2022-08-26T11:47:17.641Z,4.47
2022-08-26T11:49:45.498Z,4.57
2022-08-26T11:52:22.002Z,5.53
2022-08-26T11:55:03.157Z,4.60
2022-08-26T11:57:31.555Z,4.88
2022-08-26T11:59:58.548Z,4.30
2022-08-26T12:02:26.157Z,4.78
2022-08-26T12:04:53.600Z,4.25
2022-08-26T12:07:27.906Z,4.85
2022-08-26T12:09:58.773Z,4.55
2022-08-26T12:12:34.694Z,4.10
2022-08-26T12:15:23.763Z,4.40
2022-08-26T12:17:54.253Z,4.40
2022-08-26T12:20:31.322Z,4.50
2022-08-26T12:22:59.086Z,4.55
2022-08-26T12:25:26.112Z,4.63
2022-08-26T12:27:54.064Z,4.57
2022-08-26T12:30:26.021Z,4.75
2022-08-26T12:33:21.846Z,3.83
2022-08-26T12:35:52.887Z,4.05
2022-08-26T12:38:21.962Z,4.67
2022-08-26T12:40:50.225Z,5.00
2022-08-26T12:43:39.265Z,4.68
2022-08-26T12:46:06.810Z,4.13
2022-08-26T12:48:36.113Z,4.38
2022-08-26T12:51:03.584Z,4.63
2022-08-26T12:53:32.980Z,4.47
2022-08-26T12:56:03.557Z,4.45
2022-08-26T12:58:35.293Z,4.50
2022-08-26T13:01:05.062Z,5.30
2022-08-26T13:03:34.299Z,4.77
2022-08-26T13:06:16.008Z,4.78
2022-08-26T13:09:07.560Z,5.15
2022-08-26T13:11:40.083Z,5.05
2022-08-26T13:14:11.650Z,4.97
2022-08-26T13:16:46.081Z,4.50
2022-08-26T13:19:15.937Z,4.32
2022-08-26T13:21:50.711Z,4.57
2022-08-26T13:24:21.011Z,4.60
2022-08-26T13:26:49.150Z,4.32
2022-08-26T13:29:16.010Z,4.20
2022-08-26T13:31:46.302Z,4.95
2022-08-26T13:34:17.991Z,4.45
2022-08-26T13:36:45.113Z,4.45
2022-08-26T13:39:12.283Z,5.00
2022-08-26T13:41:39.046Z,4.33
2022-08-26T13:44:06.041Z,4.70
2022-08-26T13:46:32.658Z,4.50
2022-08-26T13:48:59.558Z,4.03
2022-08-26T13:51:26.871Z,4.80
2022-08-26T13:53:53.629Z,5.00
2022-08-26T13:56:21.393Z,5.05
2022-08-26T13:58:47.882Z,4.90
2022-08-26T14:01:17.238Z,4.63
2022-08-26T14:03:43.921Z,4.78
2022-08-26T14:06:10.571Z,4.53
2022-08-26T14:08:38.235Z,4.55
2022-08-26T14:11:04.857Z,4.88
2022-08-26T14:13:31.325Z,4.60
2022-08-26T14:15:59.628Z,4.80
2022-08-26T14:18:33.312Z,4.70
2022-08-26T14:21:00.454Z,5.35
2022-08-26T14:23:27.443Z,3.72
2022-08-26T14:25:54.031Z,5.15
2022-08-26T14:28:20.539Z,4.30
2022-08-26T14:30:51.593Z,4.00
2022-08-26T14:33:20.527Z,4.97
2022-08-26T14:35:47.951Z,4.72
2022-08-26T14:38:16.492Z,4.10
2022-08-26T14:40:46.673Z,4.75
2022-08-26T14:43:15.188Z,4.53
2022-08-26T14:45:43.608Z,4.18
2022-08-26T14:48:10.470Z,4.68
2022-08-26T14:50:37.002Z,4.00
2022-08-26T14:53:21.814Z,4.25
2022-08-26T14:55:48.379Z,4.60
2022-08-26T14:58:14.837Z,4.40
2022-08-26T15:00:41.487Z,4.25
2022-08-26T15:03:08.236Z,4.43
2022-08-26T15:05:34.834Z,4.13
2022-08-26T15:08:04.497Z,4.73
2022-08-26T15:10:31.086Z,4.53
2022-08-26T15:12:57.556Z,4.07
2022-08-26T15:15:26.241Z,3.92
2022-08-26T15:17:52.717Z,4.97
2022-08-26T15:20:19.446Z,4.33
2022-08-26T15:22:45.930Z,4.68
2022-08-26T15:25:13.581Z,4.88
2022-08-26T15:27:40.356Z,4.32
2022-08-26T15:30:09.836Z,4.47
2022-08-26T15:32:36.502Z,4.27
2022-08-26T15:35:08.142Z,4.43
2022-08-26T15:37:35.818Z,4.40
2022-08-26T15:40:02.656Z,4.43
2022-08-26T15:42:29.221Z,4.28
2022-08-26T15:44:55.714Z,4.50
2022-08-26T15:47:23.670Z,4.80
2022-08-26T15:49:50.359Z,4.50
2022-08-26T15:52:17.093Z,4.78
2022-08-26T15:54:43.583Z,4.45
2022-08-26T15:57:12.376Z,4.03
2022-08-26T15:59:40.175Z,5.15
2022-08-26T16:02:07.359Z,4.10
2022-08-26T16:04:33.996Z,4.68
2022-08-26T16:07:00.857Z,4.90
2022-08-26T16:09:28.720Z,4.70
2022-08-26T16:11:56.189Z,4.43
2022-08-26T16:14:23.555Z,4.90
2022-08-26T16:16:50.499Z,4.95
2022-08-26T16:19:17.665Z,5.55
2022-08-26T16:21:44.652Z,5.33
2022-08-26T16:24:11.892Z,4.22
2022-08-26T16:26:40.224Z,5.20
2022-08-26T16:29:09.854Z,4.32
2022-08-26T16:31:37.908Z,4.93
2022-08-26T16:34:05.733Z,4.70
2022-08-26T16:36:32.281Z,5.32
2022-08-26T16:38:58.766Z,5.32
2022-08-26T16:41:28.366Z,4.72
2022-08-26T16:43:55.385Z,4.65
2022-08-26T16:46:25.456Z,4.67
2022-08-26T16:48:53.812Z,4.78
2022-08-26T16:51:24.589Z,4.68
2022-08-26T16:53:52.236Z,4.82
2022-08-26T16:56:21.893Z,5.55
2022-08-26T16:58:48.675Z,4.40
2022-08-26T17:01:16.043Z,5.38
2022-08-26T17:03:42.813Z,4.78
2022-08-26T17:06:09.969Z,4.65
2022-08-26T17:08:37.808Z,4.93
2022-08-26T17:11:04.593Z,4.77
2022-08-26T17:13:35.156Z,4.70
2022-08-26T17:16:04.254Z,5.07
2022-08-26T17:18:31.237Z,4.55
2022-08-26T17:21:02.009Z,4.75
2022-08-26T17:23:28.615Z,4.90
2022-08-26T17:25:55.082Z,5.13
2022-08-26T17:28:21.586Z,5.53
2022-08-26T17:30:48.234Z,5.68
2022-08-26T17:33:14.814Z,5.30
2022-08-26T17:35:43.720Z,5.40
2022-08-26T17:38:10.393Z,4.85
2022-08-26T17:40:37.127Z,4.90
2022-08-26T17:43:03.824Z,4.68
2022-08-26T17:45:30.323Z,4.97
2022-08-26T17:47:57.073Z,4.67
2022-08-26T17:50:23.913Z,4.35
2022-08-26T17:52:50.408Z,4.55
2022-08-26T17:55:18.083Z,4.65
2022-08-26T17:58:03.044Z,5.63
2022-08-26T18:00:32.244Z,5.50
2022-08-26T18:02:58.739Z,5.75
2022-08-26T18:05:25.384Z,5.00
2022-08-26T18:07:52.330Z,5.18
2022-08-26T18:10:20.437Z,4.70
2022-08-26T18:12:47.436Z,5.37
2022-08-26T18:15:16.084Z,5.00
2022-08-26T18:17:42.861Z,5.13
2022-08-26T18:20:12.933Z,4.63
2022-08-26T18:22:39.818Z,4.90
2022-08-26T18:25:07.773Z,6.00
2022-08-26T18:27:36.061Z,5.80
2022-08-26T18:30:06.661Z,5.60
2022-08-26T18:32:33.172Z,5.60
2022-08-26T18:34:59.792Z,5.55
2022-08-26T18:37:29.446Z,4.10
2022-08-26T18:39:59.409Z,5.03
2022-08-26T18:42:26.544Z,4.93
2022-08-26T18:44:53.309Z,4.82
2022-08-26T18:47:19.832Z,4.97
2022-08-26T18:49:47.218Z,4.73
2022-08-26T18:52:13.710Z,5.78
2022-08-26T18:54:40.212Z,5.20
